Monday, January 26, 2015
04:22 UTC
  |  Log In   |  Register Free
Airport Search:

La Guardia Airport
(KLGA)

FAA data valid effective January 08, 2015 - March 05, 2015 (unless otherwise noted).

 
 
 
 
 
 
 
 
 
 
 
 
 
 

Current Aviation Weather for La Guardia Airport (KLGA)

The most recent METAR observation for KLGA was updated at: 0411
METAR Summary (Translated METAR)
KLGA
260351Z 36010KT 10SM BKN070 BKN170 BKN250 M01/M11 A2999 RMK AO2 SLP154 T10061111 $
KJFK
260351Z 01014KT 10SM OVC055 01/M12 A2998 RMK AO2 SLP152 T00061122 $
(9.3 nm SE from KLGA)
KTEB
260351Z 01008KT 10SM OVC070 M01/M12 A2999 RMK AO2 SLP153 T10061122 $
(9.6 nm NW from KLGA)
TAF Summary (Translated TAF)
KLGA
260234Z 2603/2624 35011KT P6SM SCT060 BKN090 FM260500 03009KT P6SM BKN040 FM261200 06015G21KT P6SM BKN030 TEMPO 2613/2615 3SM -SN BR BKN015 FM261500 06020G30KT 1SM -SN BR BKN007 FM261800 04020G30KT 3/4SM -SN BR BKN007 FM262200 02020G30KT 1/2SM SN FZFG VV005
KJFK
(9.3 nm SE from KLGA)
260234Z 2603/2706 36010KT P6SM BKN060 BKN090 FM260500 03009KT P6SM BKN040 FM261200 06014KT P6SM BKN030 TEMPO 2612/2615 3SM -SN BR BKN015 FM261500 06016G24KT 1SM -SN BR BKN007 FM261800 04020G30KT 3/4SM -SN BR BKN007 FM262200 02020G30KT 1/2SM SN FZFG VV005 FM270200 01025G40KT 1/2SM SN FZFG VV005
  Airport Weather Conditions for KLGA

 Current Weather at LGA
31° F
Mostly Cloudy
North winds at 11.5 mph
LGA NOAA Radar

Pressure: 29.99 in
Humidity: 45%
Wind: North at 11.5 MPH (10 KT)
Dew Point: 12.0°F
Visibility: 10.00 mi


Airport Weather Forecast for KLGA

Translated METAR and TAF for KLGA
Translated METAR for KLGA (0423 UTC 26 January 2015)
found at http://aviationweather.gov/adds/metars/
 
METAR text: KLGA 260351Z 36010KT 10SM BKN070 BKN170 BKN250 M01/M11 A2999 RMK AO2 SLP154 T10061111 $
Conditions at: KLGA (NYC/LA GUARDIA , NY, US) observed 0351 UTC 26 January 2015
Temperature: -0.6°C (31°F)
Dewpoint: -11.1°C (12°F) [RH = 45%]
Pressure (altimeter): 29.99 inches Hg (1015.7 mb)
[Sea-level pressure: 1015.4 mb]
Winds: from the N (360 degrees) at 12 MPH (10 knots; 5.2 m/s)
Visibility: 10 or more miles (16+ km)
Ceiling: 7000 feet AGL
Clouds: broken clouds at 7000 feet AGL
broken clouds at 17000 feet AGL
broken clouds at 25000 feet AGL
Weather:
SOME DATA ABOVE MAY BE INACCURATE!!!
"$" is an indication the sensor requires maintenance
Translated TAF for KLGA
Forecast for: KLGA (NYC/LA GUARDIA , NY, US)
TAF Text: KLGA 260234Z 2603/2624 35011KT P6SM SCT060 BKN090
Forecast period: 0300 to 0500 UTC 26 January 2015
Forecast type: FROM: standard forecast or significant change
Winds: from the N (350 degrees) at 13 MPH (11 knots; 5.7 m/s)
Visibility: 6 or more miles (10+ km)
Ceiling: 9000 feet AGL
Clouds: scattered clouds at 6000 feet AGL
broken clouds at 9000 feet AGL
Weather: no significant weather forecast for this period
TAF Text: FM260500 03009KT P6SM BKN040
Forecast period: 0500 to 1200 UTC 26 January 2015
Forecast type: FROM: standard forecast or significant change
Winds: from the NNE (30 degrees) at 10 MPH (9 knots; 4.7 m/s)
Visibility: 6 or more miles (10+ km)
Ceiling: 4000 feet AGL
Clouds: broken clouds at 4000 feet AGL
Weather: no significant weather forecast for this period
TAF Text: FM261200 06015G21KT P6SM BKN030
Forecast period: 1200 to 1500 UTC 26 January 2015
Forecast type: FROM: standard forecast or significant change
Winds: from the ENE (60 degrees) at 17 MPH (15 knots; 7.8 m/s)
gusting to 24 MPH (21 knots; 10.9 m/s)
Visibility: 6 or more miles (10+ km)
Ceiling: 3000 feet AGL
Clouds: broken clouds at 3000 feet AGL
Weather: no significant weather forecast for this period
TAF Text: TEMPO 2613/2615 3SM -SN BR BKN015
Forecast period: 1300 to 1500 UTC 26 January 2015
Forecast type: TEMPORARY: The following changes expected for less than half the time period
Visibility: 3 miles (5 km)
Ceiling: 1500 feet AGL
Clouds: broken clouds at 1500 feet AGL
Weather: -SN BR  (light snow, mist)
TAF Text: FM261500 06020G30KT 1SM -SN BR BKN007
Forecast period: 1500 to 1800 UTC 26 January 2015
Forecast type: FROM: standard forecast or significant change
Winds: from the ENE (60 degrees) at 23 MPH (20 knots; 10.4 m/s)
gusting to 34 MPH (30 knots; 15.6 m/s)
Visibility: 1.00 miles (1.61 km)
Ceiling: 700 feet AGL
Clouds: broken clouds at 700 feet AGL
Weather: -SN BR  (light snow, mist)
TAF Text: FM261800 04020G30KT 3/4SM -SN BR BKN007
Forecast period: 1800 to 2200 UTC 26 January 2015
Forecast type: FROM: standard forecast or significant change
Winds: from the NE (40 degrees) at 23 MPH (20 knots; 10.4 m/s)
gusting to 34 MPH (30 knots; 15.6 m/s)
Visibility: 0.75 miles (1.21 km)
Ceiling: 700 feet AGL
Clouds: broken clouds at 700 feet AGL
Weather: -SN BR  (light snow, mist)
TAF Text: FM262200 02020G30KT 1/2SM SN FZFG VV005
Forecast period: 2200 UTC 26 January 2015 to 0000 UTC 27 January 2015
Forecast type: FROM: standard forecast or significant change
Winds: from the NNE (20 degrees) at 23 MPH (20 knots; 10.4 m/s)
gusting to 34 MPH (30 knots; 15.6 m/s)
Visibility: 0.50 miles (0.80 km)
Ceiling: indefinite ceiling with vertical visibility of 500 feet AGL
Clouds: obscured sky
Weather: SN FZFG  (snow, freezing fog)

Find All Airport Services Find A Hotel Find A Rental Car Find A Golf Course Find A Restaurant $100 Hamburger



FBO's on the Field
FBO Company Facility Photos Services Transportation Aviation Fuel Prices: Prices include tax
Catering Weather Repair Courtesy Rental Type 100LL JetA JetA+ MOGAS 8087
 
Sheltair

This FBO has not yet been rated
FS:Avfuel
Last Updated: Dec-23
Login to update fuel prices
SS:
Contact SheltairMore FBO Information
 
Add another FBO Facility Photos Catering Weather Repair Courtesy Rental Type 100LL JetA JetA+ MOGAS 8087
Services Transportation Aviation Fuel Prices: Prices include tax


model-print
model-print
model-print
model-print